createdAt,value
2019-05-14T00:02:07.575Z,28.47
2019-05-14T00:04:42.247Z,28.83
2019-05-14T00:07:16.065Z,28.50
2019-05-14T00:09:48.078Z,28.37
2019-05-14T00:12:22.122Z,28.60
2019-05-14T00:14:54.714Z,26.43
2019-05-14T00:17:27.210Z,23.93
2019-05-14T00:20:07.182Z,21.40
2019-05-14T00:22:33.563Z,20.87
2019-05-14T00:25:05.779Z,20.40
2019-05-14T00:27:38.419Z,20.10
2019-05-14T00:30:12.960Z,21.63
2019-05-14T00:32:45.438Z,22.27
2019-05-14T00:37:53.920Z,25.60
2019-05-14T00:40:31.479Z,27.17
2019-05-14T00:43:05.528Z,27.87
2019-05-14T00:45:41.767Z,27.03
2019-05-14T00:48:17.760Z,27.73
2019-05-14T00:50:51.702Z,28.03
2019-05-14T00:53:24.961Z,28.87
2019-05-14T00:55:58.453Z,29.37
2019-05-14T00:58:31.235Z,29.83
2019-05-14T01:01:03.144Z,28.57
2019-05-14T01:03:35.157Z,29.03
2019-05-14T01:06:07.594Z,29.40
2019-05-14T01:08:42.432Z,29.80
2019-05-14T01:11:15.061Z,30.33
2019-05-14T01:13:48.357Z,31.27
2019-05-14T01:16:22.507Z,33.50
2019-05-14T01:18:53.758Z,33.93
2019-05-14T01:21:28.486Z,34.27
2019-05-14T01:24:02.065Z,30.53
2019-05-14T01:26:33.585Z,34.67
2019-05-14T01:29:06.156Z,35.00
2019-05-14T01:31:38.951Z,34.40
2019-05-14T01:34:12.356Z,32.50
2019-05-14T01:36:45.047Z,32.50
2019-05-14T01:39:17.432Z,31.90
2019-05-14T01:41:51.751Z,32.97
2019-05-14T01:44:25.190Z,32.17
2019-05-14T01:46:57.680Z,32.60
2019-05-14T01:49:31.841Z,32.13
2019-05-14T01:52:04.985Z,31.00
2019-05-14T01:54:37.277Z,29.27
2019-05-14T01:57:11.599Z,28.37
2019-05-14T01:59:54.322Z,28.47
2019-05-14T02:02:26.318Z,28.90
2019-05-14T02:04:58.775Z,29.87
2019-05-14T02:07:31.449Z,29.90
2019-05-14T02:10:04.520Z,29.10
2019-05-14T02:12:36.484Z,29.13
2019-05-14T02:15:09.183Z,27.87
2019-05-14T02:17:41.681Z,27.73
2019-05-14T02:20:13.720Z,28.97
2019-05-14T02:22:47.041Z,31.00
2019-05-14T02:25:21.554Z,30.17
2019-05-14T02:27:54.712Z,30.30
2019-05-14T02:30:41.430Z,32.17
2019-05-14T02:33:00.354Z,33.57
2019-05-14T02:35:32.373Z,36.47
2019-05-14T02:38:05.784Z,36.17
2019-05-14T02:40:40.396Z,35.67
2019-05-14T02:43:12.288Z,33.43
2019-05-14T02:46:02.054Z,35.30
2019-05-14T02:48:20.358Z,33.97
2019-05-14T02:50:52.456Z,33.17
2019-05-14T02:53:25.094Z,34.63
2019-05-14T02:55:59.246Z,33.30
2019-05-14T02:58:30.904Z,32.67
2019-05-14T03:01:02.956Z,32.17
2019-05-14T03:03:34.535Z,31.00
2019-05-14T03:06:09.453Z,31.90
2019-05-14T03:08:40.675Z,30.53
2019-05-14T03:11:13.504Z,29.70
2019-05-14T03:13:49.290Z,29.23
2019-05-14T03:16:29.293Z,30.83
2019-05-14T03:18:54.141Z,34.43
2019-05-14T03:21:26.308Z,35.03
2019-05-14T03:24:00.816Z,34.80
2019-05-14T03:26:32.691Z,35.80
2019-05-14T03:29:04.660Z,35.10
2019-05-14T03:31:41.884Z,35.13
2019-05-14T03:34:13.600Z,32.73
2019-05-14T03:36:44.386Z,32.07
2019-05-14T03:39:19.075Z,29.63
2019-05-14T03:41:50.637Z,31.00
2019-05-14T03:44:23.139Z,29.77
2019-05-14T03:47:00.761Z,27.37
2019-05-14T03:49:30.063Z,27.57
2019-05-14T03:52:03.630Z,25.90
2019-05-14T03:54:40.237Z,25.27
2019-05-14T03:57:11.806Z,22.67
2019-05-14T03:59:43.840Z,22.33
2019-05-14T04:02:19.593Z,21.97
2019-05-14T04:04:50.589Z,20.17
2019-05-14T04:07:23.782Z,23.97
2019-05-14T04:09:59.514Z,25.43
2019-05-14T04:12:35.464Z,25.83
2019-05-14T04:15:09.844Z,26.70
2019-05-14T04:17:43.723Z,25.53
2019-05-14T04:20:15.877Z,23.37
2019-05-14T04:22:51.154Z,23.00
2019-05-14T04:25:23.584Z,21.57
2019-05-14T04:27:59.688Z,21.57
2019-05-14T04:30:31.783Z,20.77
2019-05-14T04:33:14.753Z,23.17
2019-05-14T04:35:49.010Z,21.27
2019-05-14T04:38:21.475Z,20.93
2019-05-14T04:40:53.763Z,22.87
2019-05-14T04:43:25.872Z,21.40
2019-05-14T04:45:59.362Z,21.70
2019-05-14T04:48:37.647Z,20.83
2019-05-14T04:51:09.795Z,22.73
2019-05-14T04:53:41.203Z,26.73
2019-05-14T04:56:14.905Z,26.80
2019-05-14T04:58:49.698Z,26.40
2019-05-14T05:01:21.783Z,25.13
2019-05-14T05:03:55.183Z,26.17
2019-05-14T05:06:29.140Z,27.03
2019-05-14T05:09:01.722Z,27.87
2019-05-14T05:11:39.090Z,31.03
2019-05-14T05:14:09.555Z,31.40
2019-05-14T05:16:41.536Z,31.03
2019-05-14T05:19:13.112Z,30.37
2019-05-14T05:21:48.095Z,31.67
2019-05-14T05:24:21.243Z,33.13
2019-05-14T05:26:52.956Z,31.67
2019-05-14T05:29:28.427Z,30.60
2019-05-14T05:32:01.448Z,30.97
2019-05-14T05:34:33.053Z,29.87
2019-05-14T05:37:08.662Z,28.83
2019-05-14T05:39:42.371Z,28.67
2019-05-14T05:42:14.283Z,25.10
2019-05-14T05:44:48.355Z,26.37
2019-05-14T05:47:22.455Z,26.77
2019-05-14T05:49:54.776Z,27.97
2019-05-14T05:52:28.315Z,25.57
2019-05-14T05:55:00.508Z,24.60
2019-05-14T05:57:33.435Z,25.27
2019-05-14T06:00:09.416Z,25.00
2019-05-14T06:02:43.115Z,25.43
2019-05-14T06:05:15.544Z,24.90
2019-05-14T06:07:48.366Z,21.90
2019-05-14T06:10:21.950Z,21.83
2019-05-14T06:12:58.400Z,22.10
2019-05-14T06:15:44.458Z,21.83
2019-05-14T06:18:15.099Z,19.93
2019-05-14T06:20:38.893Z,19.33
2019-05-14T06:23:11.971Z,19.97
2019-05-14T06:25:44.738Z,21.17
2019-05-14T06:28:20.565Z,20.40
2019-05-14T06:30:52.170Z,19.93
2019-05-14T06:33:28.375Z,19.90
2019-05-14T06:36:00.016Z,18.13
2019-05-14T06:38:32.802Z,17.60
2019-05-14T06:41:05.123Z,18.80
2019-05-14T06:43:39.289Z,16.90
2019-05-14T06:46:11.608Z,18.50
2019-05-14T06:48:48.361Z,19.40
2019-05-14T06:51:20.374Z,18.23
2019-05-14T06:53:53.181Z,17.97
2019-05-14T06:56:28.256Z,16.60
2019-05-14T06:59:00.639Z,16.60
2019-05-14T07:01:32.550Z,17.97
2019-05-14T07:04:06.120Z,20.67
2019-05-14T07:06:41.248Z,23.93
2019-05-14T07:09:14.851Z,22.43
2019-05-14T07:11:49.235Z,18.67
2019-05-14T07:14:21.779Z,15.60
2019-05-14T07:16:54.863Z,17.80
2019-05-14T07:19:29.505Z,22.03
2019-05-14T07:22:02.211Z,22.60
2019-05-14T07:24:37.009Z,22.20
2019-05-14T07:27:09.609Z,21.67
2019-05-14T07:29:43.899Z,19.93
2019-05-14T07:32:18.898Z,18.67
2019-05-14T07:34:52.548Z,18.97
2019-05-14T07:37:24.279Z,20.57
2019-05-14T07:39:57.855Z,20.73
2019-05-14T07:42:32.832Z,22.00
2019-05-14T07:45:09.540Z,22.37
2019-05-14T07:47:43.928Z,23.00
2019-05-14T07:50:19.647Z,25.20
2019-05-14T07:52:51.720Z,24.77
2019-05-14T07:55:25.343Z,23.63
2019-05-14T07:57:58.750Z,23.20
2019-05-14T08:00:31.408Z,24.10
2019-05-14T08:03:04.970Z,25.77
2019-05-14T08:05:38.964Z,24.47
2019-05-14T08:08:12.610Z,25.43
2019-05-14T08:10:48.616Z,24.50
2019-05-14T08:13:20.547Z,23.73
2019-05-14T08:15:53.651Z,25.20
2019-05-14T08:18:28.712Z,24.70
2019-05-14T08:21:01.033Z,26.13
2019-05-14T08:23:33.328Z,26.53
2019-05-14T08:26:07.909Z,25.47
2019-05-14T08:28:40.624Z,25.50
2019-05-14T08:31:13.862Z,25.03
2019-05-14T08:33:48.927Z,25.53
2019-05-14T08:36:22.107Z,23.77
2019-05-14T08:38:54.735Z,21.27
2019-05-14T08:41:28.954Z,22.13
2019-05-14T08:44:02.150Z,18.10
2019-05-14T08:46:38.684Z,18.97
2019-05-14T08:49:10.264Z,20.40
2019-05-14T08:51:43.761Z,21.57
2019-05-14T08:54:18.855Z,21.60
2019-05-14T08:56:53.050Z,21.73
2019-05-14T08:59:28.644Z,21.50
2019-05-14T09:02:06.612Z,21.07
2019-05-14T09:04:42.404Z,20.73
2019-05-14T09:07:10.936Z,20.17
2019-05-14T09:09:44.207Z,21.33
2019-05-14T09:12:28.142Z,21.73
2019-05-14T09:15:00.775Z,21.77
2019-05-14T09:17:35.506Z,21.87
2019-05-14T09:20:12.103Z,20.87
2019-05-14T09:22:49.203Z,20.77
2019-05-14T09:25:21.763Z,19.33
2019-05-14T09:27:54.448Z,22.17
2019-05-14T09:30:29.119Z,22.20
2019-05-14T09:33:02.508Z,21.23
2019-05-14T09:35:38.446Z,20.43
2019-05-14T09:38:10.500Z,21.97
2019-05-14T09:40:43.334Z,21.60
2019-05-14T09:43:18.124Z,22.37
2019-05-14T09:45:51.419Z,21.50
2019-05-14T09:48:25.107Z,22.17
2019-05-14T09:50:58.891Z,20.63
2019-05-14T09:53:32.511Z,19.20
2019-05-14T09:56:04.604Z,20.17
2019-05-14T09:58:38.705Z,19.90
2019-05-14T10:01:13.255Z,18.20
2019-05-14T10:03:46.279Z,17.27
2019-05-14T10:06:20.904Z,19.00
2019-05-14T10:08:53.205Z,17.60
2019-05-14T10:11:28.788Z,18.70
2019-05-14T10:14:01.308Z,16.83
2019-05-14T10:16:34.794Z,17.80
2019-05-14T10:19:07.637Z,17.27
2019-05-14T10:21:42.923Z,17.50
2019-05-14T10:24:18.390Z,17.33
2019-05-14T10:26:52.104Z,17.27
2019-05-14T10:29:28.594Z,17.17
2019-05-14T10:32:02.818Z,15.97
2019-05-14T10:34:36.534Z,18.07
2019-05-14T10:37:10.861Z,18.77
2019-05-14T10:39:45.058Z,18.53
2019-05-14T10:42:20.924Z,16.33
2019-05-14T10:44:54.389Z,16.87
2019-05-14T10:47:29.195Z,17.63
2019-05-14T10:50:13.740Z,15.50
2019-05-14T10:52:48.850Z,14.37
2019-05-14T10:55:23.707Z,12.97
2019-05-14T10:58:37.745Z,13.47
2019-05-14T11:01:20.664Z,12.73
2019-05-14T11:03:52.835Z,12.90
2019-05-14T11:06:29.298Z,9.33
2019-05-14T11:09:02.007Z,8.70
2019-05-14T11:11:58.202Z,7.63
2019-05-14T11:14:31.921Z,8.27
2019-05-14T11:17:04.331Z,5.47
2019-05-14T11:19:39.024Z,6.60
2019-05-14T11:22:12.088Z,6.00
2019-05-14T11:24:46.144Z,5.37
2019-05-14T11:27:19.825Z,4.80
2019-05-14T11:29:52.246Z,5.63
2019-05-14T11:32:28.971Z,5.07
2019-05-14T11:35:00.114Z,4.60
2019-05-14T11:37:35.256Z,4.93
2019-05-14T11:40:08.987Z,5.60
2019-05-14T11:42:42.753Z,5.63
2019-05-14T11:45:17.360Z,6.97
2019-05-14T11:47:52.452Z,7.20
2019-05-14T11:50:25.444Z,8.93
2019-05-14T11:53:00.302Z,9.60
2019-05-14T11:55:33.408Z,9.80
2019-05-14T11:58:08.745Z,9.57
2019-05-14T12:00:44.326Z,10.87
2019-05-14T12:03:19.947Z,9.77
2019-05-14T12:05:54.098Z,9.17
2019-05-14T12:08:28.888Z,9.33
2019-05-14T12:11:01.520Z,9.90
2019-05-14T12:13:35.004Z,13.37
2019-05-14T12:16:08.601Z,15.70
2019-05-14T12:18:42.558Z,20.57
2019-05-14T12:21:15.419Z,22.27
2019-05-14T12:23:49.424Z,15.90
2019-05-14T12:26:22.679Z,11.93
2019-05-14T12:28:56.173Z,11.20
2019-05-14T12:31:31.122Z,10.93
2019-05-14T12:34:05.732Z,9.80
2019-05-14T12:36:39.641Z,9.20
2019-05-14T12:39:12.645Z,8.73
2019-05-14T12:41:44.861Z,8.90
2019-05-14T12:44:19.562Z,8.03
2019-05-14T12:46:52.741Z,7.20
2019-05-14T12:49:26.307Z,7.67
2019-05-14T12:52:00.758Z,7.87
2019-05-14T12:54:33.888Z,8.77
2019-05-14T12:57:05.418Z,10.13
2019-05-14T12:59:39.233Z,11.50
2019-05-14T13:02:12.243Z,9.97
2019-05-14T13:04:49.841Z,11.87
2019-05-14T13:07:24.987Z,11.53
2019-05-14T13:09:59.237Z,11.40
2019-05-14T13:12:32.169Z,11.50
2019-05-14T13:15:08.709Z,11.60
2019-05-14T13:17:42.763Z,11.90
2019-05-14T13:20:18.365Z,12.77
2019-05-14T13:22:51.714Z,12.07
2019-05-14T13:25:25.400Z,12.70
2019-05-14T13:27:59.465Z,12.20
2019-05-14T13:30:39.442Z,12.77
2019-05-14T13:33:19.211Z,13.10
2019-05-14T13:35:52.736Z,12.57
2019-05-14T13:38:27.178Z,13.50
2019-05-14T13:41:00.251Z,14.20
2019-05-14T13:43:32.787Z,14.67
2019-05-14T13:46:05.366Z,14.97
2019-05-14T13:48:43.178Z,14.53
2019-05-14T13:51:15.456Z,16.03
2019-05-14T13:53:51.328Z,12.43
2019-05-14T13:56:24.488Z,12.13
2019-05-14T13:58:59.113Z,12.43
2019-05-14T14:01:34.565Z,12.30
2019-05-14T14:04:12.514Z,12.50
2019-05-14T14:06:42.981Z,13.50
2019-05-14T14:09:17.253Z,10.77
2019-05-14T14:11:50.225Z,12.17
2019-05-14T14:14:23.330Z,11.00
2019-05-14T14:16:58.267Z,11.63
2019-05-14T14:19:31.144Z,11.03
2019-05-14T14:22:04.011Z,10.03
2019-05-14T14:24:38.699Z,10.37
2019-05-14T14:27:11.625Z,10.10
2019-05-14T14:29:45.019Z,10.30
2019-05-14T14:32:19.369Z,10.33
2019-05-14T14:34:53.715Z,10.47
2019-05-14T14:37:28.519Z,9.80
2019-05-14T14:40:02.022Z,9.20
2019-05-14T14:42:36.198Z,9.37
2019-05-14T14:45:09.681Z,8.53
2019-05-14T14:47:43.019Z,9.17
2019-05-14T14:50:19.213Z,8.67
2019-05-14T14:52:51.808Z,8.07
2019-05-14T14:55:25.103Z,10.47
2019-05-14T14:58:00.314Z,10.53
2019-05-14T15:00:33.928Z,10.50
2019-05-14T15:03:10.086Z,10.83
2019-05-14T15:05:44.665Z,10.83
2019-05-14T15:08:20.061Z,11.50
2019-05-14T15:10:53.410Z,10.43
2019-05-14T15:13:27.619Z,11.17
2019-05-14T15:16:01.097Z,10.10
2019-05-14T15:18:34.985Z,11.07
2019-05-14T15:21:09.665Z,10.77
2019-05-14T15:23:45.135Z,10.60
2019-05-14T15:26:19.298Z,12.13
2019-05-14T15:28:52.011Z,11.77
2019-05-14T15:31:25.284Z,12.63
2019-05-14T15:33:59.609Z,13.07
2019-05-14T15:36:35.893Z,13.20
2019-05-14T15:39:10.616Z,13.03
2019-05-14T15:41:45.433Z,12.67
2019-05-14T15:44:19.882Z,14.03
2019-05-14T15:46:53.114Z,13.93
2019-05-14T15:49:28.421Z,14.80
2019-05-14T15:52:03.108Z,15.03
2019-05-14T15:54:47.047Z,14.63
2019-05-14T15:57:19.447Z,13.17
2019-05-14T15:59:52.648Z,13.17
2019-05-14T16:02:29.587Z,13.40
2019-05-14T16:05:01.974Z,13.57
2019-05-14T16:07:39.047Z,14.90
2019-05-14T16:10:13.207Z,14.03
2019-05-14T16:12:45.735Z,14.03
2019-05-14T16:15:19.810Z,12.90
2019-05-14T16:18:06.309Z,12.57
2019-05-14T16:20:29.704Z,12.27
2019-05-14T16:23:02.942Z,12.57
2019-05-14T16:25:38.005Z,13.33
2019-05-14T16:28:11.657Z,12.63
2019-05-14T16:30:49.156Z,12.83
2019-05-14T16:33:22.663Z,12.27
2019-05-14T16:36:08.629Z,12.97
2019-05-14T16:38:44.176Z,13.67
2019-05-14T16:41:18.595Z,13.27
2019-05-14T16:43:51.692Z,13.07
2019-05-14T16:46:28.898Z,14.27
2019-05-14T16:49:03.422Z,14.37
2019-05-14T16:51:37.229Z,14.20
2019-05-14T16:54:11.057Z,13.43
2019-05-14T16:56:52.878Z,14.57
2019-05-14T16:59:25.956Z,15.70
2019-05-14T17:02:09.349Z,16.23
2019-05-14T17:04:43.542Z,15.47
2019-05-14T17:07:28.903Z,20.47
2019-05-14T17:10:04.321Z,26.13
2019-05-14T17:12:52.499Z,25.87
2019-05-14T17:15:18.031Z,19.83
2019-05-14T17:17:50.535Z,17.77
2019-05-14T17:20:24.505Z,18.80
2019-05-14T17:22:59.468Z,18.13
2019-05-14T17:25:31.744Z,17.13
2019-05-14T17:28:05.156Z,18.93
2019-05-14T17:30:38.505Z,20.53
2019-05-14T17:33:13.254Z,18.53
2019-05-14T17:35:48.317Z,19.80
2019-05-14T17:38:24.326Z,18.03
2019-05-14T17:40:59.825Z,18.50
2019-05-14T17:43:33.044Z,19.43
2019-05-14T17:46:06.415Z,18.27
2019-05-14T17:48:39.164Z,19.60
2019-05-14T17:51:13.029Z,18.73
2019-05-14T17:53:48.137Z,19.43
2019-05-14T17:56:23.046Z,17.40
2019-05-14T17:58:57.936Z,17.07
2019-05-14T18:01:31.806Z,17.13
2019-05-14T18:04:04.374Z,16.50
2019-05-14T18:06:37.427Z,16.27
2019-05-14T18:09:10.657Z,15.93
2019-05-14T18:11:43.360Z,17.77
2019-05-14T18:14:18.959Z,17.47
2019-05-14T18:16:55.508Z,17.10
2019-05-14T18:19:28.924Z,17.80
2019-05-14T18:22:03.262Z,18.47
2019-05-14T18:24:36.166Z,18.43
2019-05-14T18:27:11.300Z,19.47
2019-05-14T18:29:50.234Z,19.73
2019-05-14T18:32:23.077Z,20.57
2019-05-14T18:34:58.112Z,20.37
2019-05-14T18:37:30.384Z,25.30
2019-05-14T18:40:04.427Z,21.73
2019-05-14T18:42:39.769Z,21.40
2019-05-14T18:45:13.927Z,21.83
2019-05-14T18:47:48.499Z,21.10
2019-05-14T18:50:21.555Z,22.33
2019-05-14T18:52:54.608Z,21.30
2019-05-14T18:55:29.325Z,25.60
2019-05-14T18:58:03.548Z,32.43
2019-05-14T19:00:35.391Z,32.97
2019-05-14T19:03:09.539Z,28.47
2019-05-14T19:05:43.586Z,21.30
2019-05-14T19:08:17.944Z,21.07
2019-05-14T19:10:52.389Z,21.40
2019-05-14T19:13:25.588Z,21.97
2019-05-14T19:15:59.769Z,21.53
2019-05-14T19:18:34.276Z,21.97
2019-05-14T19:21:09.531Z,21.27
2019-05-14T19:23:45.327Z,20.57
2019-05-14T19:26:33.107Z,22.53
2019-05-14T19:28:53.431Z,20.90
2019-05-14T19:31:27.857Z,21.73
2019-05-14T19:34:00.664Z,20.37
2019-05-14T19:36:34.596Z,20.87
2019-05-14T19:39:09.727Z,21.53
2019-05-14T19:41:43.660Z,21.77
2019-05-14T19:44:19.089Z,22.47
2019-05-14T19:46:51.679Z,21.60
2019-05-14T19:49:25.614Z,26.73
2019-05-14T19:52:00.517Z,24.20
2019-05-14T19:54:32.900Z,22.07
2019-05-14T19:57:05.927Z,21.23
2019-05-14T19:59:39.487Z,24.83
2019-05-14T20:02:12.364Z,22.83
2019-05-14T20:04:46.444Z,23.67
2019-05-14T20:07:20.339Z,25.53
2019-05-14T20:09:54.341Z,23.03
2019-05-14T20:12:28.768Z,24.33
2019-05-14T20:15:03.570Z,25.37
2019-05-14T20:20:39.387Z,22.97
2019-05-14T20:23:41.067Z,23.07
2019-05-14T20:26:16.175Z,23.80
2019-05-14T20:28:53.425Z,23.13
2019-05-14T20:31:29.533Z,23.40
2019-05-14T20:34:02.383Z,24.13
2019-05-14T20:36:38.781Z,25.63
2019-05-14T20:39:12.148Z,26.60
2019-05-14T20:41:48.883Z,25.70
2019-05-14T20:44:22.143Z,23.70
2019-05-14T20:46:58.226Z,23.43
2019-05-14T20:49:32.071Z,23.97
2019-05-14T20:52:08.608Z,22.73
2019-05-14T20:54:41.951Z,21.70
2019-05-14T20:57:26.387Z,22.40
2019-05-14T20:59:50.183Z,22.87
2019-05-14T21:02:23.003Z,26.33
2019-05-14T21:04:56.013Z,25.40
2019-05-14T21:07:30.358Z,24.57
2019-05-14T21:10:02.877Z,26.27
2019-05-14T21:12:35.423Z,27.33
2019-05-14T21:15:09.989Z,27.10
2019-05-14T21:17:43.727Z,28.30
2019-05-14T21:20:18.451Z,29.03
2019-05-14T21:22:51.867Z,27.93
2019-05-14T21:25:26.144Z,29.93
2019-05-14T21:28:00.003Z,29.30
2019-05-14T21:30:35.363Z,28.80
2019-05-14T21:33:09.154Z,29.20
2019-05-14T21:35:42.204Z,28.60
2019-05-14T21:38:14.745Z,28.33
2019-05-14T21:40:49.964Z,28.83
2019-05-14T21:43:24.252Z,27.70
2019-05-14T21:45:58.498Z,28.10
2019-05-14T21:48:31.214Z,27.97
2019-05-14T21:51:04.293Z,28.57
2019-05-14T21:53:38.687Z,27.33
2019-05-14T21:56:11.498Z,27.83
2019-05-14T21:58:45.144Z,25.90
2019-05-14T22:01:18.856Z,28.90
2019-05-14T22:03:51.424Z,34.00
2019-05-14T22:06:24.056Z,37.60
2019-05-14T22:09:00.369Z,37.80
2019-05-14T22:11:33.314Z,39.40
2019-05-14T22:14:07.920Z,38.20
2019-05-14T22:16:42.663Z,42.83
2019-05-14T22:19:16.326Z,46.77
2019-05-14T22:21:50.540Z,44.73
2019-05-14T22:24:23.506Z,41.17
2019-05-14T22:26:58.190Z,36.47
2019-05-14T22:29:34.390Z,35.83
2019-05-14T22:32:08.227Z,33.63
2019-05-14T22:34:41.443Z,34.00
2019-05-14T22:37:14.035Z,31.63
2019-05-14T22:39:47.969Z,32.53
2019-05-14T22:42:20.179Z,32.37
2019-05-14T22:44:53.515Z,38.73
2019-05-14T22:47:28.514Z,39.30
2019-05-14T22:50:01.250Z,38.03
2019-05-14T22:52:34.410Z,37.90
2019-05-14T22:55:06.741Z,38.27
2019-05-14T22:57:40.033Z,37.93
2019-05-14T23:00:13.906Z,37.27
2019-05-14T23:02:48.761Z,38.27
2019-05-14T23:05:21.071Z,38.73
2019-05-14T23:07:53.871Z,39.40
2019-05-14T23:10:26.336Z,38.77
2019-05-14T23:12:58.882Z,39.50
2019-05-14T23:15:32.072Z,37.77
2019-05-14T23:18:03.874Z,37.10
2019-05-14T23:20:39.034Z,38.57
2019-05-14T23:23:10.708Z,39.43
2019-05-14T23:25:44.220Z,38.73
2019-05-14T23:28:19.067Z,38.67
2019-05-14T23:30:51.981Z,40.07
2019-05-14T23:33:24.138Z,42.57
2019-05-14T23:35:57.081Z,49.60
2019-05-14T23:38:29.907Z,46.80
2019-05-14T23:41:02.878Z,50.70
2019-05-14T23:43:38.837Z,48.77
2019-05-14T23:46:11.438Z,63.33
2019-05-14T23:48:44.532Z,59.57
2019-05-14T23:51:18.233Z,57.57
2019-05-14T23:53:51.513Z,52.10
2019-05-14T23:56:24.775Z,51.00
2019-05-14T23:59:01.378Z,45.67
